createdAt,value
2018-07-24T00:00:45.811Z,5.92
2018-07-24T00:03:12.277Z,5.67
2018-07-24T00:05:38.746Z,4.97
2018-07-24T00:08:05.252Z,5.43
2018-07-24T00:10:31.723Z,5.70
2018-07-24T00:12:58.256Z,5.80
2018-07-24T00:15:24.786Z,5.83
2018-07-24T00:17:51.241Z,5.27
2018-07-24T00:20:17.696Z,5.03
2018-07-24T00:22:44.166Z,5.25
2018-07-24T00:25:10.680Z,5.90
2018-07-24T00:27:37.161Z,6.37
2018-07-24T00:30:03.657Z,5.10
2018-07-24T00:32:30.238Z,6.03
2018-07-24T00:34:56.690Z,5.67
2018-07-24T00:37:23.884Z,5.30
2018-07-24T00:39:50.335Z,5.50
2018-07-24T00:42:17.035Z,5.20
2018-07-24T00:44:43.729Z,5.43
2018-07-24T00:47:10.259Z,5.33
2018-07-24T00:49:36.704Z,5.37
2018-07-24T00:52:03.190Z,5.40
2018-07-24T00:54:29.673Z,5.53
2018-07-24T00:56:56.155Z,5.30
2018-07-24T00:59:22.614Z,4.77
2018-07-24T01:01:49.105Z,6.23
2018-07-24T01:04:15.571Z,5.37
2018-07-24T01:06:42.009Z,5.60
2018-07-24T01:09:09.799Z,5.60
2018-07-24T01:11:36.845Z,5.10
2018-07-24T01:14:03.291Z,5.40
2018-07-24T01:16:29.833Z,5.10
2018-07-24T01:18:56.410Z,5.77
2018-07-24T01:21:22.881Z,5.73
2018-07-24T01:23:49.325Z,5.77
2018-07-24T01:26:15.770Z,6.10
2018-07-24T01:28:42.313Z,5.83
2018-07-24T01:31:08.915Z,5.20
2018-07-24T01:33:36.177Z,5.50
2018-07-24T01:36:03.237Z,5.20
2018-07-24T01:38:29.693Z,5.80
2018-07-24T01:40:56.163Z,5.47
2018-07-24T01:43:23.273Z,5.87
2018-07-24T01:45:49.773Z,6.40
2018-07-24T01:48:16.223Z,5.80
2018-07-24T01:50:42.681Z,5.30
2018-07-24T01:53:09.195Z,5.27
2018-07-24T01:55:35.697Z,5.60
2018-07-24T01:58:02.959Z,5.33
2018-07-24T02:00:29.439Z,6.10
2018-07-24T02:02:56.504Z,5.43
2018-07-24T02:05:22.975Z,5.40
2018-07-24T02:07:49.439Z,6.33
2018-07-24T02:10:15.903Z,5.78
2018-07-24T02:12:42.409Z,5.87
2018-07-24T02:15:08.917Z,5.40
2018-07-24T02:17:36.100Z,5.83
2018-07-24T02:20:02.836Z,5.80
2018-07-24T02:22:29.317Z,5.67
2018-07-24T02:24:55.817Z,5.70
2018-07-24T02:27:22.287Z,5.63
2018-07-24T02:29:48.823Z,6.47
2018-07-24T02:32:15.245Z,5.28
2018-07-24T02:34:41.771Z,6.10
2018-07-24T02:37:08.265Z,5.50
2018-07-24T02:39:34.727Z,5.60
2018-07-24T02:42:01.223Z,5.47
2018-07-24T02:44:27.688Z,6.40
2018-07-24T02:46:54.195Z,6.10
2018-07-24T02:49:20.661Z,5.30
2018-07-24T02:51:47.205Z,5.83
2018-07-24T02:54:13.665Z,4.90
2018-07-24T02:56:40.189Z,5.47
2018-07-24T02:59:06.673Z,5.47
2018-07-24T03:01:33.208Z,5.70
2018-07-24T03:03:59.695Z,5.53
2018-07-24T03:06:26.153Z,5.83
2018-07-24T03:08:53.057Z,5.43
2018-07-24T03:11:19.695Z,6.17
2018-07-24T03:13:46.145Z,5.50
2018-07-24T03:16:12.601Z,6.20
2018-07-24T03:18:39.116Z,6.00
2018-07-24T03:21:05.559Z,6.50
2018-07-24T03:23:32.032Z,6.17
2018-07-24T03:25:58.525Z,5.80
2018-07-24T03:28:25.973Z,5.87
2018-07-24T03:30:52.581Z,5.90
2018-07-24T03:33:19.015Z,5.23
2018-07-24T03:35:45.487Z,5.83
2018-07-24T03:38:11.926Z,5.70
2018-07-24T03:40:38.427Z,5.72
2018-07-24T03:43:04.974Z,5.50
2018-07-24T03:45:31.431Z,6.13
2018-07-24T03:47:57.917Z,6.47
2018-07-24T03:50:24.436Z,5.93
2018-07-24T03:52:50.978Z,5.92
2018-07-24T03:55:17.460Z,5.73
2018-07-24T03:57:44.149Z,6.40
2018-07-24T04:00:10.639Z,5.53
2018-07-24T04:02:37.081Z,5.70
2018-07-24T04:05:03.641Z,5.87
2018-07-24T04:07:30.105Z,5.53
2018-07-24T04:09:56.600Z,6.27
2018-07-24T04:12:23.055Z,5.12
2018-07-24T04:14:49.619Z,6.30
2018-07-24T04:17:16.076Z,5.87
2018-07-24T04:19:42.626Z,5.83
2018-07-24T04:22:09.732Z,5.57
2018-07-24T04:24:36.194Z,5.97
2018-07-24T04:27:02.664Z,5.77
2018-07-24T04:29:29.173Z,5.63
2018-07-24T04:31:55.654Z,6.30
2018-07-24T04:34:22.116Z,6.30
2018-07-24T04:36:48.569Z,6.00
2018-07-24T04:39:15.051Z,5.97
2018-07-24T04:41:41.517Z,5.62
2018-07-24T04:44:07.958Z,5.60
2018-07-24T04:46:34.471Z,6.37
2018-07-24T04:49:00.936Z,6.55
2018-07-24T04:51:27.430Z,5.50
2018-07-24T04:53:53.929Z,6.03
2018-07-24T04:56:20.394Z,5.43
2018-07-24T04:58:46.892Z,6.20
2018-07-24T05:01:13.350Z,5.90
2018-07-24T05:03:40.499Z,5.80
2018-07-24T05:06:06.994Z,6.28
2018-07-24T05:08:33.862Z,5.63
2018-07-24T05:11:00.364Z,6.05
2018-07-24T05:13:27.468Z,6.30
2018-07-24T05:15:53.974Z,5.60
2018-07-24T05:18:20.432Z,6.25
2018-07-24T05:20:46.916Z,5.43
2018-07-24T05:23:13.364Z,5.53
2018-07-24T05:25:39.810Z,6.57
2018-07-24T05:28:06.436Z,6.03
2018-07-24T05:30:32.913Z,6.65
2018-07-24T05:32:59.392Z,6.23
2018-07-24T05:35:25.887Z,5.73
2018-07-24T05:37:52.352Z,6.50
2018-07-24T05:40:18.808Z,6.12
2018-07-24T05:42:45.909Z,5.77
2018-07-24T05:45:12.558Z,6.00
2018-07-24T05:47:39.014Z,6.20
2018-07-24T05:50:05.470Z,6.77
2018-07-24T05:52:43.025Z,5.40
2018-07-24T05:55:12.010Z,5.80
2018-07-24T05:57:39.160Z,5.53
2018-07-24T06:00:05.758Z,5.33
2018-07-24T06:02:32.768Z,5.40
2018-07-24T06:04:59.860Z,6.33
2018-07-24T06:07:26.414Z,5.53
2018-07-24T06:09:52.796Z,6.57
2018-07-24T06:12:19.427Z,6.58
2018-07-24T06:14:45.920Z,5.95
2018-07-24T06:17:12.420Z,6.03
2018-07-24T06:19:38.938Z,6.80
2018-07-24T06:22:05.922Z,6.27
2018-07-24T06:24:32.386Z,6.50
2018-07-24T06:26:58.846Z,6.27
2018-07-24T06:29:25.994Z,6.22
2018-07-24T06:31:52.472Z,6.10
2018-07-24T06:34:18.947Z,5.93
2018-07-24T06:36:45.380Z,6.05
2018-07-24T06:39:13.105Z,6.33
2018-07-24T06:41:40.055Z,6.40
2018-07-24T06:44:06.515Z,5.87
2018-07-24T06:46:33.026Z,6.40
2018-07-24T06:48:59.843Z,6.07
2018-07-24T06:51:26.365Z,5.50
2018-07-24T06:53:52.819Z,6.57
2018-07-24T06:56:19.254Z,6.10
2018-07-24T06:58:45.949Z,6.10
2018-07-24T07:01:12.405Z,6.30
2018-07-24T07:03:39.018Z,6.03
2018-07-24T07:06:05.505Z,6.70
2018-07-24T07:08:32.087Z,6.50
2018-07-24T07:10:59.060Z,6.17
2018-07-24T07:13:25.941Z,6.30
2018-07-24T07:15:52.422Z,5.90
2018-07-24T07:18:18.908Z,6.53
2018-07-24T07:20:45.407Z,6.57
2018-07-24T07:23:11.994Z,6.05
2018-07-24T07:25:38.419Z,6.40
2018-07-24T07:28:04.839Z,6.63
2018-07-24T07:30:31.271Z,6.53
2018-07-24T07:32:57.691Z,6.87
2018-07-24T07:35:24.114Z,6.10
2018-07-24T07:37:50.572Z,6.27
2018-07-24T07:40:17.005Z,6.55
2018-07-24T07:42:43.895Z,6.23
2018-07-24T07:45:10.334Z,6.47
2018-07-24T07:47:37.412Z,6.50
2018-07-24T07:50:03.839Z,6.55
2018-07-24T07:52:30.288Z,6.60
2018-07-24T07:54:56.711Z,6.77
2018-07-24T07:57:23.106Z,6.10
2018-07-24T07:59:49.508Z,5.73
2018-07-24T08:02:15.941Z,6.37
2018-07-24T08:04:42.359Z,5.93
2018-07-24T08:07:08.795Z,6.12
2018-07-24T08:09:35.281Z,5.60
2018-07-24T08:12:01.684Z,5.90
2018-07-24T08:14:29.199Z,5.63
2018-07-24T08:16:55.811Z,5.92
2018-07-24T08:19:22.300Z,6.60
2018-07-24T08:21:48.783Z,6.43
2018-07-24T08:24:15.223Z,6.50
2018-07-24T08:26:41.744Z,6.50
2018-07-24T08:29:08.240Z,5.95
2018-07-24T08:31:34.710Z,5.97
2018-07-24T08:34:01.799Z,6.33
2018-07-24T08:36:28.281Z,6.47
2018-07-24T08:38:55.354Z,6.10
2018-07-24T08:41:21.846Z,6.27
2018-07-24T08:43:48.331Z,6.27
2018-07-24T08:46:14.834Z,6.25
2018-07-24T08:48:41.278Z,6.80
2018-07-24T08:51:07.708Z,6.53
2018-07-24T08:53:34.392Z,6.30
2018-07-24T08:56:01.199Z,6.37
2018-07-24T08:58:28.990Z,6.10
2018-07-24T09:00:55.466Z,6.43
2018-07-24T09:03:22.003Z,6.40
2018-07-24T09:05:48.588Z,6.47
2018-07-24T09:08:15.686Z,6.37
2018-07-24T09:10:42.164Z,5.73
2018-07-24T09:13:08.765Z,6.45
2018-07-24T09:15:35.254Z,5.62
2018-07-24T09:18:02.080Z,6.27
2018-07-24T09:20:28.565Z,5.50
2018-07-24T09:22:55.056Z,5.97
2018-07-24T09:25:21.547Z,6.13
2018-07-24T09:27:48.519Z,6.22
2018-07-24T09:30:14.961Z,6.00
2018-07-24T09:32:41.411Z,5.90
2018-07-24T09:35:07.880Z,5.78
2018-07-24T09:37:34.344Z,6.53
2018-07-24T09:40:00.794Z,6.27
2018-07-24T09:42:27.269Z,6.30
2018-07-24T09:44:53.842Z,5.37
2018-07-24T09:47:20.344Z,5.50
2018-07-24T09:49:46.884Z,5.90
2018-07-24T09:52:13.497Z,5.60
2018-07-24T09:54:40.146Z,5.10
2018-07-24T09:57:07.691Z,5.93
2018-07-24T09:59:34.663Z,5.62
2018-07-24T10:02:01.108Z,6.07
2018-07-24T10:04:27.617Z,5.78
2018-07-24T10:06:54.134Z,5.53
2018-07-24T10:09:20.611Z,5.73
2018-07-24T10:11:47.083Z,6.00
2018-07-24T10:14:13.678Z,5.67
2018-07-24T10:16:40.888Z,5.33
2018-07-24T10:19:07.357Z,6.03
2018-07-24T10:21:33.862Z,5.42
2018-07-24T10:24:00.311Z,5.90
2018-07-24T10:26:27.368Z,5.17
2018-07-24T10:28:53.963Z,5.40
2018-07-24T10:31:20.485Z,5.43
2018-07-24T10:33:46.959Z,5.30
2018-07-24T10:36:13.443Z,5.03
2018-07-24T10:38:40.076Z,5.50
2018-07-24T10:41:06.542Z,5.33
2018-07-24T10:43:33.551Z,6.07
2018-07-24T10:46:00.043Z,5.53
2018-07-24T10:48:26.533Z,5.63
2018-07-24T10:50:53.673Z,5.73
2018-07-24T10:53:20.220Z,5.30
2018-07-24T10:55:46.689Z,5.30
2018-07-24T10:58:13.474Z,5.57
2018-07-24T11:00:39.965Z,5.70
2018-07-24T11:03:06.534Z,5.40
2018-07-24T11:05:34.044Z,5.20
2018-07-24T11:08:01.184Z,5.53
2018-07-24T11:10:27.749Z,5.53
2018-07-24T11:12:54.280Z,5.28
2018-07-24T11:15:20.777Z,5.60
2018-07-24T11:17:47.537Z,5.33
2018-07-24T11:20:14.026Z,5.77
2018-07-24T11:22:40.754Z,5.33
2018-07-24T11:25:07.762Z,5.93
2018-07-24T11:27:34.303Z,5.73
2018-07-24T11:30:01.226Z,5.33
2018-07-24T11:32:28.200Z,5.37
2018-07-24T11:34:54.658Z,5.17
2018-07-24T11:37:21.138Z,5.72
2018-07-24T11:39:47.599Z,5.77
2018-07-24T11:42:14.074Z,5.40
2018-07-24T11:44:40.544Z,5.10
2018-07-24T11:47:07.042Z,4.90
2018-07-24T11:49:33.511Z,5.50
2018-07-24T11:52:00.146Z,4.80
2018-07-24T11:54:26.626Z,5.30
2018-07-24T11:56:53.104Z,4.80
2018-07-24T11:59:20.083Z,4.95
2018-07-24T12:01:46.651Z,5.53
2018-07-24T12:04:13.081Z,5.50
2018-07-24T12:06:39.554Z,5.33
2018-07-24T12:09:06.035Z,5.47
2018-07-24T12:11:32.636Z,4.93
2018-07-24T12:13:59.248Z,4.87
2018-07-24T12:16:25.751Z,5.10
2018-07-24T12:18:52.300Z,5.45
2018-07-24T12:21:18.782Z,5.53
2018-07-24T12:23:45.258Z,4.83
2018-07-24T12:26:11.744Z,5.30
2018-07-24T12:28:38.754Z,6.30
2018-07-24T12:31:05.207Z,5.17
2018-07-24T12:33:31.686Z,4.57
2018-07-24T12:35:58.205Z,5.30
2018-07-24T12:38:24.642Z,5.40
2018-07-24T12:40:51.207Z,5.27
2018-07-24T12:43:17.703Z,5.22
2018-07-24T12:45:44.440Z,5.20
2018-07-24T12:48:11.171Z,4.78
2018-07-24T12:50:37.852Z,5.10
2018-07-24T12:53:04.311Z,4.70
2018-07-24T12:55:31.254Z,4.63
2018-07-24T12:57:57.805Z,4.97
2018-07-24T13:00:24.232Z,4.60
2018-07-24T13:02:50.858Z,4.87
2018-07-24T13:05:17.354Z,5.20
2018-07-24T13:07:43.862Z,4.77
2018-07-24T13:10:11.492Z,4.83
2018-07-24T13:12:37.916Z,5.17
2018-07-24T13:15:04.397Z,4.80
2018-07-24T13:17:31.820Z,4.37
2018-07-24T13:19:58.302Z,4.87
2018-07-24T13:22:24.772Z,4.63
2018-07-24T13:24:51.285Z,4.93
2018-07-24T13:27:17.762Z,4.90
2018-07-24T13:29:44.203Z,4.63
2018-07-24T13:32:10.738Z,5.15
2018-07-24T13:34:37.179Z,4.97
2018-07-24T13:37:03.788Z,4.73
2018-07-24T13:39:30.271Z,4.90
2018-07-24T13:41:57.541Z,4.72
2018-07-24T13:44:24.012Z,4.70
2018-07-24T13:46:50.504Z,4.80
2018-07-24T13:49:17.047Z,4.58
2018-07-24T13:51:43.540Z,5.10
2018-07-24T13:54:10.035Z,5.30
2018-07-24T13:56:36.506Z,5.50
2018-07-24T13:59:03.118Z,5.20
2018-07-24T14:01:29.477Z,4.53
2018-07-24T14:03:56.125Z,4.63
2018-07-24T14:06:22.583Z,4.77
2018-07-24T14:08:49.050Z,5.30
2018-07-24T14:11:15.587Z,5.00
2018-07-24T14:13:42.091Z,4.75
2018-07-24T14:16:08.675Z,4.37
2018-07-24T14:18:35.458Z,4.20
2018-07-24T14:21:01.908Z,4.47
2018-07-24T14:23:28.371Z,4.60
2018-07-24T14:25:55.379Z,4.60
2018-07-24T14:28:21.907Z,4.67
2018-07-24T14:30:48.365Z,4.87
2018-07-24T14:33:15.419Z,4.37
2018-07-24T14:35:41.967Z,4.77
2018-07-24T14:38:08.431Z,5.20
2018-07-24T14:40:35.051Z,4.67
2018-07-24T14:43:02.179Z,4.77
2018-07-24T14:45:28.667Z,4.57
2018-07-24T14:47:55.693Z,4.60
2018-07-24T14:50:22.178Z,4.67
2018-07-24T14:52:49.086Z,4.20
2018-07-24T14:55:15.524Z,4.60
2018-07-24T14:57:42.067Z,4.50
2018-07-24T15:00:08.635Z,4.37
2018-07-24T15:02:35.280Z,4.93
2018-07-24T15:05:01.816Z,4.77
2018-07-24T15:07:28.259Z,4.70
2018-07-24T15:09:54.767Z,4.63
2018-07-24T15:12:21.243Z,4.77
2018-07-24T15:14:47.700Z,4.92
2018-07-24T15:17:14.285Z,4.67
2018-07-24T15:19:40.699Z,4.47
2018-07-24T15:22:07.846Z,5.00
2018-07-24T15:24:34.296Z,4.73
2018-07-24T15:27:00.775Z,4.30
2018-07-24T15:29:27.219Z,4.30
2018-07-24T15:31:53.695Z,4.47
2018-07-24T15:34:20.462Z,4.60
2018-07-24T15:36:46.718Z,4.60
2018-07-24T15:39:13.821Z,4.70
2018-07-24T15:41:40.938Z,4.00
2018-07-24T15:44:07.544Z,4.50
2018-07-24T15:46:44.116Z,4.40
2018-07-24T15:49:10.611Z,4.80
2018-07-24T15:51:37.077Z,4.80
2018-07-24T15:54:03.896Z,4.75
2018-07-24T15:56:30.382Z,4.28
2018-07-24T15:58:57.206Z,4.67
2018-07-24T16:01:23.669Z,4.05
2018-07-24T16:03:50.155Z,4.03
2018-07-24T16:06:17.761Z,4.30
2018-07-24T16:08:44.287Z,4.20
2018-07-24T16:11:10.744Z,4.60
2018-07-24T16:13:37.232Z,4.25
2018-07-24T16:16:03.787Z,4.93
2018-07-24T16:18:30.477Z,4.13
2018-07-24T16:20:57.644Z,4.53
2018-07-24T16:23:24.123Z,4.65
2018-07-24T16:25:50.619Z,4.80
2018-07-24T16:28:17.094Z,5.03
2018-07-24T16:30:43.530Z,5.07
2018-07-24T16:33:10.236Z,5.15
2018-07-24T16:35:36.720Z,5.30
2018-07-24T16:38:03.207Z,4.47
2018-07-24T16:40:29.696Z,4.80
2018-07-24T16:42:56.171Z,5.17
2018-07-24T16:45:22.604Z,5.30
2018-07-24T16:47:49.059Z,4.40
2018-07-24T16:50:15.664Z,4.80
2018-07-24T16:52:42.113Z,4.70
2018-07-24T16:55:08.698Z,4.63
2018-07-24T16:57:35.268Z,4.33
2018-07-24T17:00:01.754Z,4.85
2018-07-24T17:02:28.242Z,4.67
2018-07-24T17:04:54.684Z,4.63
2018-07-24T17:07:21.266Z,4.00
2018-07-24T17:09:47.710Z,4.37
2018-07-24T17:12:14.177Z,4.97
2018-07-24T17:14:40.663Z,5.70
2018-07-24T17:17:07.154Z,4.85
2018-07-24T17:19:33.646Z,5.50
2018-07-24T17:22:00.260Z,6.13
2018-07-24T17:24:27.248Z,5.40
2018-07-24T17:26:53.770Z,5.23
2018-07-24T17:29:20.309Z,5.40
2018-07-24T17:31:46.827Z,5.17
2018-07-24T17:34:13.289Z,4.60
2018-07-24T17:36:39.770Z,4.40
2018-07-24T17:39:06.290Z,4.60
2018-07-24T17:41:32.802Z,4.83
2018-07-24T17:43:59.257Z,4.90
2018-07-24T17:46:25.765Z,5.17
2018-07-24T17:48:52.354Z,4.70
2018-07-24T17:51:18.827Z,5.17
2018-07-24T17:53:45.332Z,4.97
2018-07-24T17:56:11.796Z,4.55
2018-07-24T17:58:38.273Z,5.17
2018-07-24T18:01:04.820Z,5.30
2018-07-24T18:03:31.742Z,4.50
2018-07-24T18:05:58.185Z,4.33
2018-07-24T18:08:24.689Z,4.70
2018-07-24T18:10:51.139Z,4.78
2018-07-24T18:13:18.283Z,5.10
2018-07-24T18:15:44.903Z,4.67
2018-07-24T18:18:11.385Z,4.20
2018-07-24T18:20:37.889Z,4.92
2018-07-24T18:23:04.358Z,5.07
2018-07-24T18:25:30.869Z,4.30
2018-07-24T18:27:57.463Z,5.07
2018-07-24T18:30:24.589Z,4.97
2018-07-24T18:32:51.102Z,4.77
2018-07-24T18:35:17.587Z,4.77
2018-07-24T18:37:44.091Z,4.57
2018-07-24T18:40:11.350Z,4.42
2018-07-24T18:42:37.873Z,5.17
2018-07-24T18:45:04.901Z,4.23
2018-07-24T18:47:31.449Z,4.63
2018-07-24T18:50:04.465Z,4.07
2018-07-24T18:52:30.989Z,4.83
2018-07-24T18:54:58.550Z,5.00
2018-07-24T18:57:25.098Z,4.83
2018-07-24T18:59:51.627Z,5.50
2018-07-24T19:02:18.565Z,4.80
2018-07-24T19:04:45.571Z,5.07
2018-07-24T19:07:12.559Z,5.60
2018-07-24T19:09:39.303Z,4.90
2018-07-24T19:12:05.805Z,5.20
2018-07-24T19:14:32.803Z,4.87
2018-07-24T19:16:59.623Z,5.37
2018-07-24T19:19:26.391Z,5.17
2018-07-24T19:21:52.930Z,5.50
2018-07-24T19:24:19.742Z,4.80
2018-07-24T19:26:46.369Z,4.90
2018-07-24T19:29:13.869Z,5.53
2018-07-24T19:31:40.589Z,5.43
2018-07-24T19:34:07.789Z,4.90
2018-07-24T19:36:34.601Z,5.73
2018-07-24T19:39:01.336Z,6.37
2018-07-24T19:41:28.138Z,4.90
2018-07-24T19:43:55.119Z,4.47
2018-07-24T19:46:22.023Z,4.87
2018-07-24T19:48:48.633Z,5.07
2018-07-24T19:51:15.469Z,4.27
2018-07-24T19:53:42.072Z,4.60
2018-07-24T19:56:09.079Z,5.10
2018-07-24T19:58:36.327Z,4.83
2018-07-24T20:01:04.201Z,4.97
2018-07-24T20:03:31.035Z,4.43
2018-07-24T20:05:57.980Z,4.83
2018-07-24T20:08:25.886Z,4.67
2018-07-24T20:10:52.728Z,4.57
2018-07-24T20:13:19.570Z,5.17
2018-07-24T20:15:46.418Z,4.73
2018-07-24T20:18:13.460Z,5.07
2018-07-24T20:20:40.328Z,4.57
2018-07-24T20:23:07.195Z,4.90
2018-07-24T20:25:33.908Z,4.43
2018-07-24T20:28:00.502Z,4.50
2018-07-24T20:30:27.586Z,4.73
2018-07-24T20:32:54.128Z,4.20
2018-07-24T20:35:20.726Z,4.20
2018-07-24T20:37:47.733Z,4.53
2018-07-24T20:40:14.263Z,4.73
2018-07-24T20:42:40.736Z,4.20
2018-07-24T20:45:07.320Z,4.45
2018-07-24T20:47:33.782Z,4.40
2018-07-24T20:50:00.256Z,4.43
2018-07-24T20:52:26.776Z,4.23
2018-07-24T20:54:53.322Z,3.70
2018-07-24T20:57:19.925Z,4.35
2018-07-24T20:59:46.395Z,4.05
2018-07-24T21:02:12.890Z,4.27
2018-07-24T21:04:39.376Z,4.30
2018-07-24T21:07:05.915Z,4.27
2018-07-24T21:09:32.414Z,4.37
2018-07-24T21:11:58.913Z,4.45
2018-07-24T21:14:25.369Z,3.87
2018-07-24T21:16:52.463Z,4.30
2018-07-24T21:19:19.018Z,3.90
2018-07-24T21:21:45.513Z,4.37
2018-07-24T21:24:12.051Z,4.40
2018-07-24T21:26:38.562Z,3.53
2018-07-24T21:29:05.030Z,4.45
2018-07-24T21:31:31.537Z,4.33
2018-07-24T21:33:58.034Z,4.70
2018-07-24T21:36:24.564Z,4.50
2018-07-24T21:38:51.652Z,4.73
2018-07-24T21:41:18.126Z,4.63
2018-07-24T21:43:44.615Z,4.33
2018-07-24T21:46:11.121Z,4.47
2018-07-24T21:48:37.578Z,4.57
2018-07-24T21:51:04.052Z,4.50
2018-07-24T21:53:30.556Z,5.03
2018-07-24T21:55:57.063Z,4.63
2018-07-24T21:58:23.551Z,4.27
2018-07-24T22:00:55.610Z,4.30
2018-07-24T22:03:22.074Z,4.80
2018-07-24T22:05:48.534Z,4.10
2018-07-24T22:08:15.022Z,4.30
2018-07-24T22:10:41.456Z,4.43
2018-07-24T22:13:07.951Z,4.23
2018-07-24T22:15:34.437Z,4.33
2018-07-24T22:18:00.966Z,4.28
2018-07-24T22:20:27.450Z,4.50
2018-07-24T22:22:54.177Z,4.28
2018-07-24T22:25:20.629Z,4.80
2018-07-24T22:27:47.097Z,4.57
2018-07-24T22:30:13.713Z,3.93
2018-07-24T22:32:40.165Z,4.97
2018-07-24T22:35:07.468Z,4.17
2018-07-24T22:37:34.261Z,4.23
2018-07-24T22:40:01.073Z,4.00
2018-07-24T22:42:28.160Z,3.63
2018-07-24T22:44:54.661Z,4.62
2018-07-24T22:47:21.121Z,4.23
2018-07-24T22:49:47.625Z,4.47
2018-07-24T22:52:14.080Z,4.53
2018-07-24T22:54:40.599Z,4.40
2018-07-24T22:57:07.426Z,4.73
2018-07-24T22:59:33.907Z,4.55
2018-07-24T23:02:00.366Z,4.47
2018-07-24T23:04:26.851Z,4.07
2018-07-24T23:06:53.343Z,4.57
2018-07-24T23:09:19.798Z,4.62
2018-07-24T23:11:46.243Z,3.90
2018-07-24T23:14:12.695Z,4.57
2018-07-24T23:16:39.184Z,4.33
2018-07-24T23:19:05.622Z,4.13
2018-07-24T23:21:32.093Z,4.03
2018-07-24T23:23:58.587Z,4.37
2018-07-24T23:26:25.157Z,4.45
2018-07-24T23:28:51.654Z,4.40
2018-07-24T23:31:18.104Z,4.30
2018-07-24T23:33:44.558Z,4.27
2018-07-24T23:36:11.672Z,4.40
2018-07-24T23:38:38.585Z,4.57
2018-07-24T23:41:05.070Z,4.50
2018-07-24T23:43:31.550Z,4.40
2018-07-24T23:45:58.032Z,4.57
2018-07-24T23:48:25.016Z,4.33
2018-07-24T23:50:51.479Z,4.83
2018-07-24T23:53:17.958Z,3.98
2018-07-24T23:55:44.451Z,4.20
2018-07-24T23:58:10.943Z,4.90
